Time;durP1;ratioP1;P1;durP2;ratioP2;P2;SDS_P1;SDS_P2;PMS_P1;PMS_P2;Temp;Humidity;BMP_temperature;BMP_pressure;BME280_temperature;BME280_humidity;BME280_pressure;Samples;Min_cycle;Max_cycle;Signal;HPM_P1;HPM_P2
2023/04/25 00:01:54;;;;;;;;;;;;;;;15.40;59.35;100035.72;4939384;29;19914;-83
2023/04/25 00:04:46;;;;;;;;;;;;;;;15.45;58.98;100033.84;4939900;29;19914;-83
2023/04/25 00:07:38;;;;;;;;;;;;;;;15.48;58.92;100035.88;4938819;29;19918;-83
2023/04/25 00:10:30;;;;;;;;;;;;;;;15.47;59.31;100024.13;4938315;29;19915;-82
2023/04/25 00:13:22;;;;;;;;;;;;;;;15.50;59.03;100014.38;4938366;29;19914;-82
2023/04/25 00:16:14;;;;;;;;;;;;;;;15.49;59.42;100015.53;4939404;29;19919;-83
2023/04/25 00:19:06;;;;;;;;;;;;;;;15.40;59.99;100011.06;4939138;29;19915;-83
2023/04/25 00:21:58;;;;;;;;;;;;;;;15.40;59.91;100013.03;4939423;29;20370;-83
2023/04/25 00:24:50;;;;;;;;;;;;;;;15.37;59.95;100003.59;4938774;29;19915;-83
2023/04/25 00:27:42;;;;;;;;;;;;;;;15.33;59.58;100007.44;4939249;29;19915;-83
2023/04/25 00:30:33;;;;;;;;;;;;;;;15.37;59.47;100006.34;4939388;29;19919;-83
2023/04/25 00:33:25;;;;;;;;;;;;;;;15.37;59.61;100000.88;4938940;29;19918;-83
2023/04/25 00:36:18;;;;;;;;;;;;;;;15.25;59.62;99994.75;4941786;29;19922;-83
2023/04/25 00:39:09;;;;;;;;;;;;;;;15.31;60.14;99990.56;4939391;29;20294;-83
2023/04/25 00:42:02;;;;;;;;;;;;;;;15.37;59.16;100000.06;4938556;29;19915;-83
2023/04/25 00:44:55;;;;;;;;;;;;;;;15.39;59.08;99997.72;4942984;29;19919;-83
2023/04/25 00:47:48;;;;;;;;;;;;;;;15.42;58.34;99997.03;4941516;29;19915;-83
2023/04/25 00:50:39;;;;;;;;;;;;;;;15.43;58.78;100000.56;4942467;29;19915;-81
2023/04/25 00:53:32;;;;;;;;;;;;;;;15.46;57.92;99994.34;4941717;29;19915;-83
2023/04/25 00:56:18;;;;;;;;;;;;;;;15.40;57.80;99993.84;4940844;29;19914;-83
2023/04/25 00:59:11;;;;;;;;;;;;;;;15.37;57.71;99986.38;4941969;29;19922;-83
2023/04/25 01:02:01;;;;;;;;;;;;;;;15.27;58.00;99978.75;4940717;29;20387;-83
2023/04/25 01:04:53;;;;;;;;;;;;;;;15.24;58.09;99969.31;4953527;28;19915;-83
2023/04/25 01:07:45;;;;;;;;;;;;;;;15.24;57.80;99963.81;4962688;28;19918;-82
2023/04/25 01:10:37;;;;;;;;;;;;;;;15.26;58.00;99967.00;4961164;28;19914;-83
2023/04/25 01:13:29;;;;;;;;;;;;;;;15.23;58.42;99966.94;4963877;28;19914;-83
2023/04/25 01:16:21;;;;;;;;;;;;;;;15.19;57.83;99960.59;4962172;28;19914;-83
2023/04/25 01:19:12;;;;;;;;;;;;;;;15.17;58.19;99968.41;4960209;28;19918;-83
2023/04/25 01:22:04;;;;;;;;;;;;;;;15.26;57.62;99971.69;4960565;29;19918;-82
2023/04/25 01:24:56;;;;;;;;;;;;;;;15.22;57.76;99968.09;4961294;28;19914;-82
2023/04/25 01:27:48;;;;;;;;;;;;;;;15.21;57.34;99961.03;4964365;28;19914;-82
2023/04/25 01:30:40;;;;;;;;;;;;;;;15.20;57.48;99967.66;4962832;28;19914;-83
2023/04/25 01:33:30;;;;;;;;;;;;;;;15.22;57.77;99971.63;4958156;28;20290;-83
2023/04/25 01:36:22;;;;;;;;;;;;;;;15.20;57.74;99967.66;4955288;28;19923;-83
2023/04/25 01:39:12;;;;;;;;;;;;;;;15.19;58.16;99969.59;4960760;29;19914;-83
2023/04/25 01:42:04;;;;;;;;;;;;;;;15.21;58.18;99969.25;4962136;29;19918;-85
2023/04/25 01:44:56;;;;;;;;;;;;;;;15.29;57.58;99971.75;4962703;28;19914;-86
2023/04/25 01:47:48;;;;;;;;;;;;;;;15.30;57.76;99967.84;4963315;28;20392;-86
2023/04/25 01:50:40;;;;;;;;;;;;;;;15.27;57.63;99968.59;4967069;28;19914;-86
2023/04/25 01:53:32;;;;;;;;;;;;;;;15.30;57.54;99962.38;4964491;28;19915;-85
2023/04/25 01:56:22;;;;;;;;;;;;;;;15.37;56.64;99957.03;4961174;29;20190;-85
2023/04/25 01:59:14;;;;;;;;;;;;;;;15.32;57.17;99957.31;4966914;28;19914;-86
2023/04/25 02:02:27;;;;;;;;;;;;;;;15.38;56.70;99946.84;4963713;28;19918;-83
2023/04/25 02:05:19;;;;;;;;;;;;;;;15.35;56.75;99947.56;4959759;28;19915;-83
2023/04/25 02:08:11;;;;;;;;;;;;;;;15.36;56.18;99936.25;4961608;28;19918;-83
2023/04/25 02:11:03;;;;;;;;;;;;;;;15.41;56.22;99929.69;4959915;29;19914;-82
2023/04/25 02:13:59;;;;;;;;;;;;;;;15.41;56.20;99932.41;4963259;28;19914;-82
2023/04/25 02:17:01;;;;;;;;;;;;;;;15.48;55.62;99940.75;4959963;28;19914;-83
2023/04/25 02:19:53;;;;;;;;;;;;;;;15.41;55.90;99935.16;4963608;28;20406;-82
2023/04/25 02:22:43;;;;;;;;;;;;;;;15.40;55.43;99928.09;4960593;28;20313;-82
2023/04/25 02:25:35;;;;;;;;;;;;;;;15.47;55.64;99932.91;4959198;28;19915;-81
2023/04/25 02:28:27;;;;;;;;;;;;;;;15.51;55.71;99920.88;4959386;29;19914;-82
2023/04/25 02:31:16;;;;;;;;;;;;;;;15.42;55.29;99923.03;4960881;28;19914;-83
2023/04/25 02:34:09;;;;;;;;;;;;;;;15.39;55.54;99904.59;4958601;28;19914;-82
2023/04/25 02:37:01;;;;;;;;;;;;;;;15.38;55.51;99906.56;4962007;28;20366;-83
2023/04/25 02:39:53;;;;;;;;;;;;;;;15.33;55.40;99898.66;4960006;28;20122;-82
2023/04/25 02:42:45;;;;;;;;;;;;;;;15.29;55.15;99886.81;4964050;28;19918;-83
2023/04/25 02:45:37;;;;;;;;;;;;;;;15.35;55.18;99895.53;4960035;29;19914;-83
2023/04/25 02:48:29;;;;;;;;;;;;;;;15.34;54.84;99891.19;4959658;28;19914;-83
2023/04/25 02:51:18;;;;;;;;;;;;;;;15.30;54.61;99896.63;4959751;29;19914;-83
2023/04/25 02:54:10;;;;;;;;;;;;;;;15.37;54.37;99890.47;4960670;28;19915;-82
2023/04/25 02:57:04;;;;;;;;;;;;;;;15.41;54.87;99889.38;4957948;28;20297;-82
2023/04/25 02:59:58;;;;;;;;;;;;;;;15.42;53.88;99887.44;4961428;28;20382;-82
2023/04/25 03:02:50;;;;;;;;;;;;;;;15.40;54.18;99893.28;4959412;28;20302;-82
2023/04/25 03:05:43;;;;;;;;;;;;;;;15.42;53.99;99898.38;4962844;28;20454;-82
2023/04/25 03:08:35;;;;;;;;;;;;;;;15.48;53.03;99904.34;4942536;28;19914;-81
2023/04/25 03:11:27;;;;;;;;;;;;;;;15.49;52.83;99900.47;4920005;29;20306;-82
2023/04/25 03:14:19;;;;;;;;;;;;;;;15.48;53.34;99904.34;4935316;29;20302;-82
2023/04/25 03:17:11;;;;;;;;;;;;;;;15.46;54.55;99892.97;4921562;29;20298;-82
2023/04/25 03:20:04;;;;;;;;;;;;;;;15.54;54.86;99898.22;4933057;29;19923;-81
2023/04/25 03:22:56;;;;;;;;;;;;;;;15.52;55.03;99897.78;4923045;29;19919;-82
2023/04/25 03:25:48;;;;;;;;;;;;;;;15.51;54.87;99896.22;4934587;29;19915;-81
2023/04/25 03:28:39;;;;;;;;;;;;;;;15.51;56.06;99889.91;4924674;29;19914;-81
2023/04/25 03:31:27;;;;;;;;;;;;;;;15.39;55.33;99894.41;4949292;29;19914;-82
2023/04/25 03:34:19;;;;;;;;;;;;;;;15.40;54.62;99889.72;4957904;28;19914;-83
2023/04/25 03:37:08;;;;;;;;;;;;;;;15.56;53.66;99887.66;4961674;28;20370;-83
2023/04/25 03:40:01;;;;;;;;;;;;;;;15.40;54.29;99896.00;4959931;28;19918;-83
2023/04/25 03:43:06;;;;;;;;;;;;;;;15.26;54.90;99895.78;4962440;28;19918;-82
2023/04/25 03:45:58;;;;;;;;;;;;;;;15.28;54.61;99904.44;4960558;28;19922;-83
2023/04/25 03:48:48;;;;;;;;;;;;;;;15.25;54.78;99898.88;4958713;28;19918;-82
2023/04/25 03:51:44;;;;;;;;;;;;;;;15.28;54.46;99890.75;4961612;28;19918;-82
2023/04/25 03:54:36;;;;;;;;;;;;;;;15.25;55.08;99904.34;4959395;28;19915;-83
2023/04/25 03:57:27;;;;;;;;;;;;;;;15.25;55.07;99905.16;4957211;28;19914;-82
2023/04/25 04:00:19;;;;;;;;;;;;;;;15.25;54.54;99910.63;4961175;28;20297;-82
2023/04/25 04:03:08;;;;;;;;;;;;;;;15.06;55.72;99907.97;4958103;28;19919;-82
2023/04/25 04:06:00;;;;;;;;;;;;;;;15.07;55.60;99914.22;4962022;28;19914;-82
2023/04/25 04:08:52;;;;;;;;;;;;;;;15.03;55.71;99914.19;4960374;28;19914;-83
2023/04/25 04:11:44;;;;;;;;;;;;;;;14.95;56.08;99910.50;4957764;29;19919;-82
2023/04/25 04:14:36;;;;;;;;;;;;;;;14.87;55.74;99910.75;4959361;28;19914;-82
2023/04/25 04:17:28;;;;;;;;;;;;;;;14.74;56.03;99923.00;4959109;28;19914;-82
2023/04/25 04:20:20;;;;;;;;;;;;;;;14.73;56.82;99927.69;4961533;28;19914;-83
2023/04/25 04:23:12;;;;;;;;;;;;;;;14.74;56.58;99918.31;4964714;28;19918;-83
2023/04/25 04:26:02;;;;;;;;;;;;;;;14.82;56.68;99911.06;4962581;28;19914;-83
2023/04/25 04:29:02;;;;;;;;;;;;;;;14.85;56.35;99913.06;4965945;28;19915;-83
2023/04/25 04:32:01;;;;;;;;;;;;;;;14.91;56.20;99911.59;4952413;28;19915;-83
2023/04/25 04:34:53;;;;;;;;;;;;;;;14.80;56.15;99910.59;4953878;28;19915;-83
2023/04/25 04:37:45;;;;;;;;;;;;;;;14.83;56.18;99923.59;4964277;28;19914;-83
2023/04/25 07:21:51;;;;;;;;;;;;;;;14.48;59.04;100003.78;5969333;23;19921;-74
2023/04/25 07:24:44;;;;;;;;;;;;;;;14.56;62.19;100004.75;4921468;29;20767;-76
2023/04/25 07:27:33;;;;;;;;;;;;;;;14.73;62.43;100009.03;4929923;29;19914;-76
2023/04/25 07:30:29;;;;;;;;;;;;;;;14.73;61.32;99995.34;4931244;28;19919;-77
2023/04/25 07:33:20;;;;;;;;;;;;;;;14.25;64.34;99977.47;4933570;28;19915;-75
2023/04/25 07:36:12;;;;;;;;;;;;;;;13.97;65.90;99972.16;4916943;29;20378;-76
2023/04/25 07:39:04;;;;;;;;;;;;;;;14.01;65.37;99962.09;4927893;29;20289;-76
2023/04/25 07:41:56;;;;;;;;;;;;;;;13.77;66.56;99952.16;4924396;29;20297;-75
2023/04/25 07:44:51;;;;;;;;;;;;;;;13.45;66.66;99940.50;4937639;29;19923;-76
2023/04/25 07:47:43;;;;;;;;;;;;;;;13.28;66.88;99932.66;4921034;29;19915;-76
2023/04/25 07:50:35;;;;;;;;;;;;;;;13.56;64.98;99936.06;4913453;29;19915;-76
2023/04/25 07:53:27;;;;;;;;;;;;;;;13.83;64.97;99945.28;4913256;29;19923;-76
2023/04/25 07:56:21;;;;;;;;;;;;;;;14.14;64.54;99949.91;4924615;29;19914;-75
2023/04/25 07:59:15;;;;;;;;;;;;;;;14.03;64.28;99954.31;4921004;29;19915;-75
2023/04/25 08:02:07;;;;;;;;;;;;;;;13.81;64.35;99955.81;4944950;28;19915;-75
2023/04/25 08:04:59;;;;;;;;;;;;;;;13.64;65.18;99951.50;4917819;29;19927;-76
2023/04/25 08:07:52;;;;;;;;;;;;;;;13.59;65.86;99959.97;4913497;29;20557;-76
2023/04/25 08:10:41;;;;;;;;;;;;;;;13.87;65.87;99973.50;4911880;29;19915;-76
2023/04/25 08:13:33;;;;;;;;;;;;;;;14.28;64.59;99977.53;4903277;29;19923;-76
2023/04/25 08:16:26;;;;;;;;;;;;;;;14.73;63.29;99987.13;4915229;29;19915;-76
2023/04/25 08:19:19;;;;;;;;;;;;;;;15.80;61.25;99991.41;4911532;29;19915;-74
2023/04/25 08:22:07;;;;;;;;;;;;;;;15.90;59.39;100000.97;4913778;29;20386;-73
2023/04/25 08:25:07;;;;;;;;;;;;;;;15.59;58.58;100001.25;4913888;29;19919;-73
2023/04/25 08:27:56;;;;;;;;;;;;;;;15.69;57.70;100023.38;4925698;29;19915;-75
2023/04/25 08:30:48;;;;;;;;;;;;;;;15.82;56.49;100032.97;4929582;29;19915;-76
2023/04/25 08:33:38;;;;;;;;;;;;;;;16.14;55.25;100038.97;4911934;29;19915;-76
2023/04/25 08:36:51;;;;;;;;;;;;;;;16.23;55.18;100030.47;4916286;29;19919;-76
2023/04/25 08:39:56;;;;;;;;;;;;;;;15.67;53.24;100042.13;4914584;29;19919;-77
2023/04/25 08:42:58;;;;;;;;;;;;;;;15.48;55.21;100044.09;4911882;29;19919;-79
2023/04/25 08:45:51;;;;;;;;;;;;;;;15.21;53.61;100030.31;4915869;29;19927;-79
2023/04/25 08:48:59;;;;;;;;;;;;;;;15.39;54.86;100036.88;4913979;29;19919;-76
2023/04/25 08:51:51;;;;;;;;;;;;;;;15.20;53.20;100038.88;4930212;29;19919;-78
2023/04/25 08:54:50;;;;;;;;;;;;;;;15.24;53.74;100032.31;4929039;29;20298;-78
2023/04/25 08:57:42;;;;;;;;;;;;;;;15.35;53.78;100029.75;4917386;29;19923;-77
2023/04/25 09:00:32;;;;;;;;;;;;;;;15.33;52.29;100029.34;4913662;29;20370;-78
2023/04/25 09:03:22;;;;;;;;;;;;;;;15.44;53.18;100024.84;4913153;29;19919;-77
2023/04/25 09:06:14;;;;;;;;;;;;;;;15.54;54.25;100026.22;4922230;29;19915;-77
2023/04/25 09:09:07;;;;;;;;;;;;;;;15.73;54.10;100026.97;4916834;29;19915;-77
2023/04/25 09:11:59;;;;;;;;;;;;;;;15.72;52.82;100030.06;4915347;29;20367;-77
2023/04/25 09:15:11;;;;;;;;;;;;;;;15.62;51.51;100033.41;4917997;29;19915;-75
2023/04/25 09:18:38;;;;;;;;;;;;;;;15.73;50.68;100031.66;4916248;29;19923;-78
2023/04/25 09:21:30;;;;;;;;;;;;;;;16.05;52.85;100043.91;4917713;29;19915;-76
2023/04/25 09:24:34;;;;;;;;;;;;;;;16.14;50.79;100044.47;4915825;29;19921;-78
2023/04/25 09:27:26;;;;;;;;;;;;;;;16.27;51.75;100036.78;4928553;29;20310;-77
2023/04/25 09:30:48;;;;;;;;;;;;;;;16.30;51.68;100038.81;4916516;29;19918;-76
2023/04/25 09:33:45;;;;;;;;;;;;;;;16.27;49.98;100039.53;4928552;28;19919;-77
2023/04/25 09:36:37;;;;;;;;;;;;;;;16.34;49.93;100047.09;4916519;29;19915;-76
2023/04/25 09:39:50;;;;;;;;;;;;;;;16.43;51.04;100044.88;4905291;29;20298;-77
2023/04/25 09:42:44;;;;;;;;;;;;;;;16.70;51.72;100043.72;4918919;29;19915;-77
2023/04/25 09:45:43;;;;;;;;;;;;;;;16.71;50.84;100058.22;4937725;29;19918;-78
2023/04/25 09:48:35;;;;;;;;;;;;;;;16.81;51.63;100044.63;4945759;29;19915;-77
2023/04/25 09:51:25;;;;;;;;;;;;;;;16.73;51.80;100059.44;4953666;28;19915;-79
2023/04/25 09:54:19;;;;;;;;;;;;;;;16.79;51.61;100040.66;4943329;28;19915;-77
2023/04/25 09:57:18;;;;;;;;;;;;;;;16.88;51.05;100043.91;4918252;29;19915;-79
2023/04/25 10:00:12;;;;;;;;;;;;;;;17.09;51.39;100052.41;4922641;29;19919;-80
2023/04/25 10:03:07;;;;;;;;;;;;;;;17.11;50.67;100052.84;4918420;29;20487;-78
2023/04/25 10:06:14;;;;;;;;;;;;;;;17.20;50.41;100055.28;4918089;29;19930;-79
2023/04/25 10:09:06;;;;;;;;;;;;;;;17.28;51.05;100059.69;4920765;29;19915;-80
2023/04/25 10:12:00;;;;;;;;;;;;;;;17.35;51.01;100057.03;4918483;29;20314;-79
2023/04/25 10:14:50;;;;;;;;;;;;;;;17.43;49.60;100061.41;4925718;29;19919;-79
2023/04/25 10:17:40;;;;;;;;;;;;;;;17.44;51.32;100063.81;4932206;28;20298;-78
2023/04/25 10:20:32;;;;;;;;;;;;;;;17.12;52.39;100059.91;4919197;29;19923;-78
2023/04/25 10:23:25;;;;;;;;;;;;;;;17.22;52.39;100061.97;4915665;29;19928;-77
2023/04/25 10:26:17;;;;;;;;;;;;;;;17.27;51.60;100053.41;4916862;29;19919;-79
2023/04/25 10:29:11;;;;;;;;;;;;;;;17.30;52.23;100049.91;4913420;29;19923;-79
2023/04/25 10:32:04;;;;;;;;;;;;;;;17.36;52.29;100048.41;4931741;28;21312;-78
2023/04/25 10:34:54;;;;;;;;;;;;;;;17.38;51.48;100048.00;4915507;29;19914;-79
2023/04/25 10:38:02;;;;;;;;;;;;;;;17.57;50.37;100049.78;4915936;29;20382;-79
2023/04/25 10:41:08;;;;;;;;;;;;;;;17.56;50.70;100054.50;4917120;29;19916;-79
2023/04/25 10:44:06;;;;;;;;;;;;;;;17.61;50.66;100051.44;4913938;29;19919;-76
2023/04/25 10:47:02;;;;;;;;;;;;;;;17.77;50.40;100053.94;4919175;29;20382;-77
2023/04/25 10:49:52;;;;;;;;;;;;;;;17.84;49.89;100048.47;4924675;29;19922;-76
2023/04/25 10:52:44;;;;;;;;;;;;;;;18.00;50.85;100067.47;4928685;28;19923;-78
2023/04/25 10:55:51;;;;;;;;;;;;;;;17.90;49.96;100072.53;4913715;29;19914;-77
2023/04/25 10:58:46;;;;;;;;;;;;;;;18.03;51.91;100064.75;4911657;29;19915;-78
2023/04/25 11:01:40;;;;;;;;;;;;;;;17.95;51.09;100068.63;4916396;29;19923;-79
2023/04/25 11:04:38;;;;;;;;;;;;;;;17.82;51.02;100064.59;4925417;29;19919;-81
2023/04/25 11:07:35;;;;;;;;;;;;;;;17.69;50.60;100069.56;4927324;29;19915;-77
2023/04/25 11:10:29;;;;;;;;;;;;;;;17.69;50.64;100061.31;4925301;28;19915;-78
2023/04/25 11:13:22;;;;;;;;;;;;;;;17.85;50.44;100063.81;4913189;29;20294;-79
2023/04/25 11:16:14;;;;;;;;;;;;;;;18.02;50.10;100062.41;4912374;29;19919;-79
2023/04/25 11:19:06;;;;;;;;;;;;;;;18.11;50.64;100071.91;4913127;29;19915;-78
2023/04/25 11:22:00;;;;;;;;;;;;;;;17.83;50.78;100055.16;4913674;29;19915;-77
2023/04/25 11:24:50;;;;;;;;;;;;;;;17.82;52.36;100057.13;4913880;29;19918;-80
2023/04/25 11:27:37;;;;;;;;;;;;;;;17.80;51.65;100058.66;4918896;29;19916;-79
2023/04/25 11:30:29;;;;;;;;;;;;;;;17.81;50.75;100061.06;4916309;29;19914;-79
2023/04/25 11:33:25;;;;;;;;;;;;;;;17.87;50.82;100054.03;4911757;29;20297;-78
2023/04/25 11:36:17;;;;;;;;;;;;;;;17.98;50.44;100051.34;4913116;29;19915;-77
2023/04/25 11:39:09;;;;;;;;;;;;;;;18.07;50.49;100051.03;4915793;29;19915;-78
2023/04/25 11:42:01;;;;;;;;;;;;;;;17.86;50.06;100046.16;4927576;29;20306;-78
2023/04/25 11:44:51;;;;;;;;;;;;;;;18.03;50.92;100058.47;4917913;29;20313;-78
2023/04/25 11:47:41;;;;;;;;;;;;;;;18.09;50.96;100054.19;4925986;28;19915;-76
2023/04/25 11:50:30;;;;;;;;;;;;;;;18.13;51.97;100055.81;4921518;29;20281;-76
2023/04/25 11:53:20;;;;;;;;;;;;;;;18.24;51.69;100061.38;4927933;29;19915;-75
2023/04/25 11:56:12;;;;;;;;;;;;;;;18.24;50.17;100064.91;4910768;29;19919;-79
2023/04/25 11:59:05;;;;;;;;;;;;;;;18.25;51.96;100066.50;4938851;28;20378;-76
2023/04/25 12:01:57;;;;;;;;;;;;;;;18.14;51.20;100057.38;4919193;29;20374;-80
2023/04/25 12:04:47;;;;;;;;;;;;;;;18.25;51.76;100061.00;4919733;29;19922;-76
2023/04/25 12:07:37;;;;;;;;;;;;;;;18.20;50.50;100039.34;4922725;29;19915;-79
2023/04/25 12:10:29;;;;;;;;;;;;;;;18.00;52.17;100049.00;4932159;28;19915;-78
2023/04/25 12:13:23;;;;;;;;;;;;;;;18.04;52.57;100049.81;4916055;29;19919;-79
2023/04/25 12:16:19;;;;;;;;;;;;;;;18.24;52.91;100040.13;4916729;29;19915;-79
2023/04/25 12:19:09;;;;;;;;;;;;;;;18.43;51.25;100044.59;4938563;29;19915;-78
2023/04/25 12:22:01;;;;;;;;;;;;;;;18.56;51.23;100037.63;4923627;29;19918;-80
2023/04/25 12:24:53;;;;;;;;;;;;;;;18.61;50.71;100037.25;4940069;29;19919;-77
2023/04/25 12:27:45;;;;;;;;;;;;;;;18.66;48.65;100047.91;4927748;29;19914;-78
2023/04/25 12:30:53;;;;;;;;;;;;;;;18.72;46.13;100046.38;4925970;29;19914;-80
2023/04/25 12:33:47;;;;;;;;;;;;;;;18.72;46.77;100046.38;4923212;29;19915;-82
2023/04/25 12:36:39;;;;;;;;;;;;;;;18.75;46.84;100048.34;4923725;29;19915;-79
2023/04/25 12:39:31;;;;;;;;;;;;;;;18.69;47.77;100049.88;4932573;29;19915;-78
2023/04/25 12:42:23;;;;;;;;;;;;;;;18.77;46.34;100061.72;4930233;29;19915;-76
2023/04/25 12:45:15;;;;;;;;;;;;;;;18.77;46.62;100075.50;4925002;29;19919;-79
2023/04/25 12:48:04;;;;;;;;;;;;;;;18.76;47.45;100071.16;4930318;29;19914;-78
2023/04/25 12:50:56;;;;;;;;;;;;;;;18.76;47.29;100060.94;4931780;29;19919;-78
2023/04/25 12:53:48;;;;;;;;;;;;;;;18.76;47.28;100071.16;4942099;28;19915;-78
2023/04/25 12:56:37;;;;;;;;;;;;;;;18.73;46.07;100075.50;4951295;28;19915;-78
2023/04/25 12:59:29;;;;;;;;;;;;;;;18.67;46.19;100077.03;4948248;28;19915;-80
2023/04/25 13:02:16;;;;;;;;;;;;;;;18.64;46.45;100093.53;4920912;29;20382;-78
2023/04/25 13:05:08;;;;;;;;;;;;;;;18.57;47.87;100101.75;4922066;29;19919;-81
2023/04/25 13:08:00;;;;;;;;;;;;;;;18.50;48.38;100107.16;4923233;29;19915;-81
2023/04/25 13:54:56;;;;;;;;;;;;;;;18.04;52.78;100168.13;5200383;23;1389204;-80
2023/04/25 13:57:46;;;;;;;;;;;;;;;17.99;53.12;100157.47;4954392;28;20293;-81
2023/04/25 14:00:38;;;;;;;;;;;;;;;17.97;53.62;100162.59;4965728;28;19914;-80
2023/04/25 14:03:30;;;;;;;;;;;;;;;17.91;53.77;100164.09;4962973;28;19914;-79
2023/04/25 14:06:22;;;;;;;;;;;;;;;17.88;53.87;100168.38;4959368;28;19918;-81
2023/04/25 14:09:11;;;;;;;;;;;;;;;17.89;53.62;100182.91;4961898;28;19918;-78
2023/04/25 14:12:01;;;;;;;;;;;;;;;17.82;53.20;100197.41;4966660;28;19918;-80
2023/04/25 14:14:53;;;;;;;;;;;;;;;17.80;53.54;100198.94;4964569;28;20376;-80
2023/04/25 14:17:45;;;;;;;;;;;;;;;17.76;53.22;100200.88;4970079;28;19922;-81
2023/04/25 14:20:35;;;;;;;;;;;;;;;17.70;53.62;100208.66;4967976;28;19913;-80
2023/04/25 14:23:27;;;;;;;;;;;;;;;17.69;53.41;100214.53;4965243;28;20412;-80
2023/04/25 14:26:19;;;;;;;;;;;;;;;17.73;53.86;100218.09;4966677;28;20373;-80
2023/04/25 14:29:11;;;;;;;;;;;;;;;17.69;53.58;100215.31;4965638;28;19914;-81
2023/04/25 14:32:03;;;;;;;;;;;;;;;17.56;53.96;100205.72;4963651;28;20397;-81
2023/04/25 14:34:52;;;;;;;;;;;;;;;17.40;54.93;100147.41;4965800;28;19914;-80
2023/04/25 14:37:44;;;;;;;;;;;;;;;17.29;59.37;100119.00;4959469;28;19915;-81
2023/04/25 14:40:36;;;;;;;;;;;;;;;17.34;61.82;100089.22;4959821;28;20285;-81
2023/04/25 14:43:25;;;;;;;;;;;;;;;17.33;60.55;100095.06;4968642;28;19914;-81
2023/04/25 14:46:13;;;;;;;;;;;;;;;17.30;58.88;100121.38;4964348;28;19918;-81
2023/04/25 14:49:05;;;;;;;;;;;;;;;17.29;57.84;100138.22;4950940;28;20486;-81
2023/04/25 14:51:55;;;;;;;;;;;;;;;17.07;58.38;100134.41;4953395;28;19915;-80
2023/04/25 14:54:47;;;;;;;;;;;;;;;16.91;58.72;100131.06;4943410;28;19919;-79
2023/04/25 14:57:39;;;;;;;;;;;;;;;17.13;57.16;100140.38;4958346;28;19914;-78
2023/04/25 15:00:31;;;;;;;;;;;;;;;17.09;56.92;100141.13;4955215;28;20301;-79
2023/04/25 15:03:24;;;;;;;;;;;;;;;16.98;57.55;100137.44;4959626;28;19914;-79
2023/04/25 15:06:16;;;;;;;;;;;;;;;16.78;57.87;100132.44;4951361;28;19917;-79
2023/04/25 15:09:08;;;;;;;;;;;;;;;16.72;58.79;100122.94;4970947;28;19913;-79
2023/04/25 15:12:00;;;;;;;;;;;;;;;16.53;59.13;100126.56;4974115;28;19914;-78
2023/04/25 15:14:52;;;;;;;;;;;;;;;16.65;58.75;100134.63;4973498;28;19914;-79
2023/04/25 15:17:42;;;;;;;;;;;;;;;16.57;58.12;100130.16;4949639;28;19915;-79
2023/04/25 15:20:34;;;;;;;;;;;;;;;16.62;56.69;100144.38;4962117;28;19914;-79
2023/04/25 15:23:24;;;;;;;;;;;;;;;16.63;57.47;100147.94;4961769;28;20304;-79
2023/04/25 15:26:16;;;;;;;;;;;;;;;16.67;58.14;100146.03;4974876;28;19950;-79
2023/04/25 15:29:08;;;;;;;;;;;;;;;16.84;57.37;100148.25;4978760;28;19914;-79
2023/04/25 15:32:00;;;;;;;;;;;;;;;16.90;57.65;100157.75;4975196;28;19914;-78
2023/04/25 15:34:52;;;;;;;;;;;;;;;16.96;55.96;100145.28;4973741;28;19918;-79
2023/04/25 15:37:44;;;;;;;;;;;;;;;16.96;56.11;100161.75;4980400;28;19914;-79
2023/04/25 15:40:36;;;;;;;;;;;;;;;16.89;56.63;100152.63;4979632;28;19914;-79
2023/04/25 15:43:28;;;;;;;;;;;;;;;16.84;56.95;100151.00;4981912;28;19914;-79
2023/04/25 15:46:20;;;;;;;;;;;;;;;16.77;56.83;100161.06;4980841;28;20373;-82
2023/04/25 15:49:12;;;;;;;;;;;;;;;16.86;56.01;100164.34;4960913;28;20304;-80
2023/04/25 15:52:02;;;;;;;;;;;;;;;16.84;56.42;100156.47;4979777;28;19914;-80
2023/04/25 15:54:54;;;;;;;;;;;;;;;16.84;56.95;100159.22;4972247;28;19914;-80
2023/04/25 15:57:46;;;;;;;;;;;;;;;16.91;55.41;100166.78;4972311;28;20373;-79
2023/04/25 16:00:38;;;;;;;;;;;;;;;16.99;55.33;100165.72;4965929;28;19913;-80
2023/04/25 16:03:30;;;;;;;;;;;;;;;16.96;55.21;100159.00;4963740;28;19914;-80
2023/04/25 16:06:20;;;;;;;;;;;;;;;16.95;55.01;100162.13;4937313;29;20301;-79
2023/04/25 16:09:12;;;;;;;;;;;;;;;17.02;52.83;100165.75;4964451;28;19922;-81
2023/04/25 16:12:04;;;;;;;;;;;;;;;17.03;52.63;100163.78;4975310;28;19913;-82
2023/04/25 16:14:56;;;;;;;;;;;;;;;16.96;52.76;100156.28;4975983;28;19914;-81
2023/04/25 16:17:45;;;;;;;;;;;;;;;17.00;53.31;100154.34;4949786;28;19914;-81
2023/04/25 16:20:37;;;;;;;;;;;;;;;16.98;54.03;100164.91;4970689;28;20373;-81
2023/04/25 16:23:29;;;;;;;;;;;;;;;16.97;54.04;100160.56;4979890;28;19914;-81
2023/04/25 16:26:21;;;;;;;;;;;;;;;16.99;53.95;100157.47;4975679;28;19922;-81
2023/04/25 16:29:13;;;;;;;;;;;;;;;16.99;53.66;100149.22;4975623;28;19914;-81
2023/04/25 16:32:05;;;;;;;;;;;;;;;16.95;53.60;100151.94;4975387;28;19914;-82
2023/04/25 16:34:57;;;;;;;;;;;;;;;16.95;53.58;100138.19;4974699;28;19914;-81
2023/04/25 16:37:49;;;;;;;;;;;;;;;16.99;53.91;100139.03;4977486;28;19914;-81
2023/04/25 16:40:39;;;;;;;;;;;;;;;16.97;54.24;100135.84;4975338;28;19914;-82
2023/04/25 16:43:30;;;;;;;;;;;;;;;17.03;54.58;100139.88;4979091;28;20293;-82
2023/04/25 16:46:22;;;;;;;;;;;;;;;17.09;53.60;100138.38;4974791;28;20022;-81
2023/04/25 16:49:12;;;;;;;;;;;;;;;17.04;53.70;100141.44;4974671;28;19914;-82
2023/04/25 16:52:03;;;;;;;;;;;;;;;17.03;53.66;100150.06;4975635;28;19914;-82
2023/04/25 16:54:55;;;;;;;;;;;;;;;17.03;53.74;100155.56;4976749;28;19914;-80
2023/04/25 16:57:47;;;;;;;;;;;;;;;17.05;53.50;100155.97;4975060;28;20293;-80
2023/04/25 17:00:39;;;;;;;;;;;;;;;17.03;53.28;100156.34;4979119;28;20365;-79
2023/04/25 17:03:28;;;;;;;;;;;;;;;16.89;53.51;100155.38;4975254;28;19914;-80
2023/04/25 17:06:20;;;;;;;;;;;;;;;16.87;53.68;100158.47;4945208;28;19917;-79
2023/04/25 17:09:12;;;;;;;;;;;;;;;16.91;53.31;100164.03;4969008;28;20373;-78
2023/04/25 17:12:02;;;;;;;;;;;;;;;16.92;53.50;100171.88;4957779;28;19918;-78
2023/04/25 17:14:54;;;;;;;;;;;;;;;16.91;53.88;100164.03;4973428;28;19914;-80
2023/04/25 17:17:46;;;;;;;;;;;;;;;16.98;53.69;100169.59;4959644;28;19918;-80
2023/04/25 17:20:38;;;;;;;;;;;;;;;17.00;53.57;100173.59;4950740;28;20371;-80
2023/04/25 17:23:30;;;;;;;;;;;;;;;16.97;53.99;100177.06;4971102;28;19914;-81
2023/04/25 17:26:22;;;;;;;;;;;;;;;17.01;53.59;100175.19;4955817;28;20300;-80
2023/04/25 17:29:14;;;;;;;;;;;;;;;16.94;53.80;100177.81;4956605;28;19918;-81
2023/04/25 17:32:06;;;;;;;;;;;;;;;16.97;53.35;100173.50;4946960;28;19915;-80
2023/04/25 17:34:58;;;;;;;;;;;;;;;17.02;54.08;100187.72;4943465;28;19914;-81
2023/04/25 17:37:50;;;;;;;;;;;;;;;17.01;53.43;100175.19;4947330;28;19914;-80
2023/04/25 17:40:42;;;;;;;;;;;;;;;16.97;53.92;100174.31;4947970;28;19923;-81
2023/04/25 17:43:34;;;;;;;;;;;;;;;16.82;54.33;100177.22;4946751;28;19919;-80
2023/04/25 17:46:26;;;;;;;;;;;;;;;16.71;54.97;100174.31;4950767;28;20377;-80
2023/04/25 17:49:18;;;;;;;;;;;;;;;16.55;55.21;100173.66;4952748;28;20376;-80
2023/04/25 17:52:10;;;;;;;;;;;;;;;16.45;55.80;100177.03;4953801;28;19919;-80
2023/04/25 17:54:59;;;;;;;;;;;;;;;16.40;55.70;100178.13;4948054;28;20077;-80
2023/04/25 17:57:51;;;;;;;;;;;;;;;16.44;55.18;100191.91;4948704;28;19919;-80
2023/04/25 18:00:43;;;;;;;;;;;;;;;16.54;54.54;100196.78;4947119;28;19914;-80
2023/04/25 18:03:33;;;;;;;;;;;;;;;16.66;54.47;100204.84;4951488;28;19994;-80
2023/04/25 18:06:25;;;;;;;;;;;;;;;16.60;54.81;100204.38;4954422;28;19939;-80
2023/04/25 18:09:17;;;;;;;;;;;;;;;16.56;55.08;100202.69;4958161;28;19914;-80
2023/04/25 18:12:09;;;;;;;;;;;;;;;16.58;55.04;100198.44;4955887;28;19914;-80
2023/04/25 18:15:01;;;;;;;;;;;;;;;16.66;55.43;100202.88;4959399;28;20292;-81
2023/04/25 18:17:50;;;;;;;;;;;;;;;16.72;55.20;100208.84;4981087;28;19914;-80